createdAt,value
2023-03-02T00:00:01.354Z,17.30
2023-03-02T00:03:06.354Z,17.17
2023-03-02T00:06:10.544Z,16.33
2023-03-02T00:09:13.407Z,17.97
2023-03-02T00:12:17.663Z,17.13
2023-03-02T00:15:20.615Z,17.80
2023-03-02T00:18:23.491Z,15.70
2023-03-02T00:21:26.477Z,17.13
2023-03-02T00:24:29.525Z,18.40
2023-03-02T00:27:33.924Z,18.53
2023-03-02T00:30:38.404Z,16.97
2023-03-02T00:33:41.342Z,16.80
2023-03-02T00:36:44.462Z,18.27
2023-03-02T00:39:47.704Z,16.97
2023-03-02T00:42:51.982Z,17.37
2023-03-02T00:45:55.120Z,19.13
2023-03-02T00:48:57.968Z,17.93
2023-03-02T00:52:00.844Z,19.07
2023-03-02T00:55:03.771Z,18.60
2023-03-02T00:58:08.055Z,17.93
2023-03-02T01:01:12.828Z,19.07
2023-03-02T01:04:15.762Z,19.63
2023-03-02T01:07:20.750Z,19.63
2023-03-02T01:10:23.631Z,20.37
2023-03-02T01:13:28.191Z,19.73
2023-03-02T01:16:31.488Z,18.73
2023-03-02T01:19:35.140Z,21.27
2023-03-02T01:22:38.063Z,18.20
2023-03-02T01:25:40.996Z,20.53
2023-03-02T01:28:45.213Z,19.23
2023-03-02T01:31:48.157Z,18.47
2023-03-02T01:34:51.449Z,19.83
2023-03-02T01:37:54.367Z,19.33
2023-03-02T01:40:57.382Z,18.80
2023-03-02T01:44:01.618Z,20.40
2023-03-02T01:47:06.821Z,19.63
2023-03-02T01:50:20.100Z,20.23
2023-03-02T01:53:25.813Z,19.40
2023-03-02T01:56:34.707Z,20.97
2023-03-02T01:59:41.951Z,20.37
2023-03-02T02:02:44.891Z,19.23
2023-03-02T02:05:52.262Z,18.63
2023-03-02T02:08:58.171Z,20.50
2023-03-02T02:12:01.412Z,20.47
2023-03-02T02:15:07.241Z,19.57
2023-03-02T02:18:10.517Z,19.83
2023-03-02T02:21:13.880Z,19.23
2023-03-02T02:24:23.248Z,18.90
2023-03-02T02:27:29.868Z,18.87
2023-03-02T02:30:32.767Z,21.17
2023-03-02T02:33:37.746Z,19.70
2023-03-02T02:36:44.331Z,19.60
2023-03-02T02:39:49.782Z,19.47
2023-03-02T02:42:55.492Z,20.50
2023-03-02T02:46:00.090Z,19.10
2023-03-02T02:49:04.394Z,19.77
2023-03-02T02:52:08.364Z,20.13
2023-03-02T02:55:16.879Z,18.67
2023-03-02T02:58:29.689Z,18.70
2023-03-02T03:01:34.555Z,19.03
2023-03-02T03:04:37.518Z,18.00
2023-03-02T03:07:40.397Z,19.87
2023-03-02T03:10:44.952Z,19.33
2023-03-02T03:13:49.291Z,19.97
2023-03-02T03:16:52.898Z,19.13
2023-03-02T03:20:06.396Z,19.73
2023-03-02T03:23:09.372Z,18.47
2023-03-02T03:26:12.422Z,20.43
2023-03-02T03:29:17.866Z,17.90
2023-03-02T03:32:21.768Z,19.50
2023-03-02T03:35:24.815Z,18.23
2023-03-02T03:38:27.900Z,18.03
2023-03-02T03:41:30.760Z,19.97
2023-03-02T03:44:35.494Z,20.23
2023-03-02T03:47:38.587Z,19.27
2023-03-02T03:50:41.575Z,18.70
2023-03-02T03:53:44.678Z,18.63
2023-03-02T03:56:49.632Z,19.37
2023-03-02T03:59:54.445Z,20.43
2023-03-02T04:02:57.611Z,21.03
2023-03-02T04:06:00.527Z,20.23
2023-03-02T04:09:04.958Z,20.27
2023-03-02T04:12:09.080Z,20.77
2023-03-02T04:15:16.707Z,18.73
2023-03-02T04:18:19.559Z,19.10
2023-03-02T04:21:22.972Z,20.13
2023-03-02T04:24:26.024Z,19.60
2023-03-02T04:27:28.942Z,18.37
2023-03-02T04:30:33.780Z,19.87
2023-03-02T04:33:36.623Z,20.73
2023-03-02T04:36:40.696Z,19.23
2023-03-02T04:39:46.030Z,19.20
2023-03-02T04:42:49.106Z,19.47
2023-03-02T04:45:54.543Z,20.23
2023-03-02T04:48:57.607Z,20.30
2023-03-02T04:52:00.472Z,21.47
2023-03-02T04:55:03.742Z,20.63
2023-03-02T04:58:06.687Z,21.27
2023-03-02T05:01:12.666Z,21.00
2023-03-02T05:04:16.562Z,19.33
2023-03-02T05:07:19.714Z,20.40
2023-03-02T05:10:23.970Z,19.10
2023-03-02T05:13:27.340Z,19.73
2023-03-02T05:16:34.708Z,20.20
2023-03-02T05:19:37.897Z,19.93
2023-03-02T05:22:40.848Z,19.10
2023-03-02T05:25:43.725Z,20.07
2023-03-02T05:28:47.132Z,19.53
2023-03-02T05:31:51.666Z,18.37
2023-03-02T05:34:54.620Z,18.73
2023-03-02T05:37:57.531Z,19.93
2023-03-02T05:41:00.398Z,20.53
2023-03-02T05:44:03.551Z,20.03
2023-03-02T05:47:07.953Z,20.13
2023-03-02T05:50:11.987Z,21.00
2023-03-02T05:53:14.905Z,18.53
2023-03-02T05:56:18.024Z,20.73
2023-03-02T05:59:20.884Z,21.20
2023-03-02T06:02:25.130Z,21.93
2023-03-02T06:05:28.139Z,22.00
2023-03-02T06:08:31.467Z,20.43
2023-03-02T06:11:34.324Z,21.00
2023-03-02T06:14:37.584Z,23.17
2023-03-02T06:17:41.914Z,22.43
2023-03-02T06:20:45.085Z,21.57
2023-03-02T06:23:47.943Z,24.90
2023-03-02T06:26:50.800Z,23.50
2023-03-02T06:29:54.265Z,23.30
2023-03-02T06:32:59.844Z,21.70
2023-03-02T06:36:02.840Z,21.03
2023-03-02T06:39:05.821Z,20.80
2023-03-02T06:42:08.691Z,23.17
2023-03-02T06:45:12.520Z,22.40
2023-03-02T06:48:16.800Z,21.10
2023-03-02T06:51:19.701Z,23.17
2023-03-02T06:54:24.043Z,21.63
2023-03-02T06:57:33.560Z,21.67
2023-03-02T07:00:36.426Z,23.00
2023-03-02T07:03:40.793Z,22.03
2023-03-02T07:06:43.988Z,22.70
2023-03-02T07:09:46.852Z,22.50
2023-03-02T07:12:49.736Z,22.80
2023-03-02T07:15:53.563Z,23.00
2023-03-02T07:18:58.013Z,22.97
2023-03-02T07:22:00.866Z,23.37
2023-03-02T07:25:03.764Z,22.87
2023-03-02T07:28:06.718Z,22.67
2023-03-02T07:31:09.953Z,23.80
2023-03-02T07:34:15.331Z,20.80
2023-03-02T07:37:18.244Z,23.87
2023-03-02T07:40:21.120Z,23.70
2023-03-02T07:43:26.053Z,23.53
2023-03-02T07:46:28.930Z,22.80
2023-03-02T07:49:33.336Z,23.57
2023-03-02T07:52:36.375Z,22.87
2023-03-02T07:55:41.745Z,21.20
2023-03-02T07:58:44.939Z,22.33
2023-03-02T08:01:47.939Z,21.37
2023-03-02T08:04:53.226Z,23.97
2023-03-02T08:07:56.087Z,23.93
2023-03-02T08:11:05.492Z,21.97
2023-03-02T08:14:08.417Z,20.57
2023-03-02T08:17:11.293Z,21.43
2023-03-02T08:20:16.183Z,23.27
2023-03-02T08:23:19.156Z,21.13
2023-03-02T08:26:22.608Z,22.27
2023-03-02T08:29:25.529Z,20.73
2023-03-02T08:32:28.486Z,20.13
2023-03-02T08:35:32.801Z,20.63
2023-03-02T08:38:37.139Z,21.53
2023-03-02T08:41:40.028Z,20.47
2023-03-02T08:44:43.063Z,19.23
2023-03-02T08:47:46.299Z,19.10
2023-03-02T08:50:57.940Z,16.97
2023-03-02T08:54:00.844Z,17.17
2023-03-02T08:57:04.299Z,19.77
2023-03-02T09:00:11.040Z,17.90
2023-03-02T09:03:14.376Z,17.23
2023-03-02T09:06:19.020Z,18.90
2023-03-02T09:09:21.925Z,17.07
2023-03-02T09:12:24.851Z,18.73
2023-03-02T09:15:28.033Z,18.70
2023-03-02T09:18:32.008Z,21.27
2023-03-02T09:21:36.266Z,18.13
2023-03-02T09:24:39.162Z,17.13
2023-03-02T09:27:42.658Z,17.80
2023-03-02T09:30:50.299Z,17.20
2023-03-02T09:33:53.163Z,16.57
2023-03-02T09:36:57.519Z,17.47
2023-03-02T09:40:00.355Z,19.40
2023-03-02T09:43:16.378Z,17.20
2023-03-02T09:46:24.070Z,17.20
2023-03-02T09:49:47.618Z,16.90
2023-03-02T09:53:02.584Z,18.20
2023-03-02T09:56:14.472Z,16.13
2023-03-02T09:59:24.156Z,16.83
2023-03-02T10:02:30.658Z,15.90
2023-03-02T10:05:39.623Z,15.30
2023-03-02T10:08:43.908Z,15.23
2023-03-02T10:12:05.431Z,14.63
2023-03-02T10:15:15.484Z,15.70
2023-03-02T10:18:23.131Z,15.30
2023-03-02T10:21:32.136Z,16.87
2023-03-02T10:24:41.891Z,15.13
2023-03-02T10:27:51.321Z,16.50
2023-03-02T10:31:05.466Z,15.77
2023-03-02T10:34:11.205Z,15.03
2023-03-02T10:37:17.191Z,15.37
2023-03-02T10:40:34.652Z,16.23
2023-03-02T10:43:43.048Z,16.73
2023-03-02T10:46:47.745Z,14.73
2023-03-02T10:49:51.873Z,16.07
2023-03-02T10:52:59.990Z,15.00
2023-03-02T10:56:07.242Z,15.77
2023-03-02T10:59:53.241Z,16.33
2023-03-02T11:02:58.408Z,15.23
2023-03-02T11:06:13.492Z,14.57
2023-03-02T11:09:16.648Z,14.17
2023-03-02T11:12:21.128Z,14.83
2023-03-02T11:15:27.325Z,14.10
2023-03-02T11:18:35.219Z,14.50
2023-03-02T11:21:42.938Z,14.87
2023-03-02T11:24:51.059Z,15.03
2023-03-02T11:28:00.830Z,14.13
2023-03-02T11:31:07.696Z,14.60
2023-03-02T11:34:28.138Z,15.50
2023-03-02T11:37:40.712Z,13.83
2023-03-02T11:40:48.338Z,13.30
2023-03-02T11:43:53.674Z,13.57
2023-03-02T11:47:01.552Z,13.30
2023-03-02T11:50:08.027Z,12.93
2023-03-02T11:53:15.589Z,14.07
2023-03-02T11:56:18.533Z,13.73
2023-03-02T11:59:26.533Z,13.10
2023-03-02T12:02:30.498Z,13.17
2023-03-02T12:05:36.652Z,13.17
2023-03-02T12:08:42.411Z,15.57
2023-03-02T12:11:47.085Z,12.50
2023-03-02T12:14:52.463Z,12.77
2023-03-02T12:17:55.391Z,12.67
2023-03-02T12:21:03.954Z,12.37
2023-03-02T12:24:07.473Z,12.40
2023-03-02T12:27:26.832Z,12.67
2023-03-02T12:30:31.583Z,12.27
2023-03-02T12:33:42.315Z,11.13
2023-03-02T12:36:45.832Z,12.20
2023-03-02T12:40:26.393Z,11.20
2023-03-02T12:43:32.547Z,11.83
2023-03-02T12:46:40.392Z,10.97
2023-03-02T12:49:52.317Z,11.70
2023-03-02T12:52:59.639Z,11.93
2023-03-02T12:56:02.522Z,11.67
2023-03-02T12:59:05.819Z,11.27
2023-03-02T13:02:18.027Z,11.23
2023-03-02T13:05:23.376Z,11.33
2023-03-02T13:08:28.819Z,10.80
2023-03-02T13:11:34.626Z,10.70
2023-03-02T13:14:41.178Z,10.97
2023-03-02T13:17:46.424Z,10.20
2023-03-02T13:20:51.026Z,10.90
2023-03-02T13:23:54.167Z,11.93
2023-03-02T13:26:58.868Z,11.50
2023-03-02T13:30:10.941Z,10.13
2023-03-02T13:33:22.883Z,10.10
2023-03-02T13:36:28.822Z,9.97
2023-03-02T13:39:32.874Z,10.20
2023-03-02T13:42:38.646Z,10.77
2023-03-02T13:45:51.461Z,10.43
2023-03-02T13:49:09.163Z,9.87
2023-03-02T13:52:22.916Z,10.30
2023-03-02T13:55:26.539Z,10.47
2023-03-02T13:58:30.633Z,10.07
2023-03-02T14:01:33.749Z,8.80
2023-03-02T14:04:38.291Z,10.57
2023-03-02T14:07:41.622Z,9.47
2023-03-02T14:10:44.941Z,9.83
2023-03-02T14:13:53.169Z,9.70
2023-03-02T14:16:59.272Z,8.87
2023-03-02T14:20:04.088Z,9.20
2023-03-02T14:23:07.990Z,9.57
2023-03-02T14:26:28.315Z,17.53
2023-03-02T14:29:33.519Z,17.77
2023-03-02T14:32:36.771Z,19.23
2023-03-02T14:35:41.356Z,18.50
2023-03-02T14:38:44.995Z,19.83
2023-03-02T14:41:53.749Z,19.77
2023-03-02T14:44:59.250Z,20.27
2023-03-02T14:48:03.010Z,19.23
2023-03-02T14:51:16.470Z,19.77
2023-03-02T14:54:21.084Z,19.83
2023-03-02T14:57:26.293Z,20.10
2023-03-02T15:00:29.777Z,20.63
2023-03-02T15:03:32.999Z,18.43
2023-03-02T15:06:40.147Z,19.97
2023-03-02T15:09:44.074Z,20.07
2023-03-02T15:12:47.052Z,20.63
2023-03-02T15:15:50.045Z,20.33
2023-03-02T15:18:54.066Z,20.83
2023-03-02T15:21:58.385Z,19.43
2023-03-02T15:25:01.380Z,21.43
2023-03-02T15:28:05.097Z,19.87
2023-03-02T15:31:09.168Z,21.73
2023-03-02T15:34:12.489Z,22.10
2023-03-02T15:37:16.662Z,21.20
2023-03-02T15:40:19.706Z,21.37
2023-03-02T15:43:24.195Z,21.37
2023-03-02T15:46:27.222Z,20.40
2023-03-02T15:49:32.773Z,19.83
2023-03-02T15:52:36.957Z,21.57
2023-03-02T15:55:41.661Z,22.23
2023-03-02T15:58:47.986Z,20.10
2023-03-02T16:01:51.035Z,21.80
2023-03-02T16:04:53.874Z,22.77
2023-03-02T16:07:58.050Z,23.40
2023-03-02T16:11:02.628Z,22.67
2023-03-02T16:14:05.635Z,22.47
2023-03-02T16:17:09.469Z,21.20
2023-03-02T16:20:13.322Z,22.20
2023-03-02T16:23:17.526Z,21.30
2023-03-02T16:26:22.136Z,24.03
2023-03-02T16:29:25.178Z,23.53
2023-03-02T16:32:30.015Z,24.20
2023-03-02T16:35:34.453Z,23.23
2023-03-02T16:38:39.273Z,23.67
2023-03-02T16:41:44.587Z,25.90
2023-03-02T16:44:48.638Z,24.60
2023-03-02T16:47:52.127Z,25.37
2023-03-02T16:50:58.877Z,24.93
2023-03-02T16:54:03.340Z,24.33
2023-03-02T16:57:06.527Z,24.93
2023-03-02T17:00:14.273Z,26.03
2023-03-02T17:03:17.441Z,25.57
2023-03-02T17:06:23.011Z,27.63
2023-03-02T17:09:28.053Z,26.57
2023-03-02T17:12:31.245Z,25.47
2023-03-02T17:15:34.605Z,25.83
2023-03-02T17:18:37.577Z,27.00
2023-03-02T17:21:40.855Z,26.93
2023-03-02T17:24:45.354Z,26.03
2023-03-02T17:27:48.642Z,27.00
2023-03-02T17:30:51.835Z,25.00
2023-03-02T17:33:55.008Z,26.50
2023-03-02T17:36:59.514Z,26.17
2023-03-02T17:40:04.426Z,26.20
2023-03-02T17:43:08.335Z,27.03
2023-03-02T17:46:14.361Z,24.97
2023-03-02T17:49:17.243Z,25.40
2023-03-02T17:52:20.173Z,25.60
2023-03-02T17:55:24.345Z,27.17
2023-03-02T17:58:33.195Z,27.37
2023-03-02T18:01:45.873Z,25.50
2023-03-02T18:04:48.723Z,26.43
2023-03-02T18:07:52.663Z,27.00
2023-03-02T18:10:56.831Z,26.30
2023-03-02T18:13:59.717Z,26.10
2023-03-02T18:17:04.815Z,26.67
2023-03-02T18:20:08.585Z,24.73
2023-03-02T18:23:12.118Z,28.43
2023-03-02T18:26:17.109Z,28.20
2023-03-02T18:29:19.956Z,25.87
2023-03-02T18:32:23.184Z,26.80
2023-03-02T18:35:26.246Z,27.10
2023-03-02T18:38:30.970Z,25.87
2023-03-02T18:41:35.270Z,27.60
2023-03-02T18:44:38.644Z,27.37
2023-03-02T18:47:41.482Z,27.37
2023-03-02T18:50:44.682Z,43.40
2023-03-02T18:53:48.208Z,29.97
2023-03-02T18:56:52.687Z,28.33
2023-03-02T18:59:55.531Z,26.60
2023-03-02T19:02:58.461Z,27.17
2023-03-02T19:06:01.325Z,25.47
2023-03-02T19:09:04.288Z,27.53
2023-03-02T19:12:08.687Z,28.57
2023-03-02T19:15:13.112Z,27.23
2023-03-02T19:18:16.908Z,27.60
2023-03-02T19:21:19.752Z,27.20
2023-03-02T19:24:22.579Z,32.70
2023-03-02T19:27:27.424Z,28.03
2023-03-02T19:30:30.512Z,25.07
2023-03-02T19:33:33.722Z,28.20
2023-03-02T19:36:36.609Z,27.37
2023-03-02T19:39:39.454Z,30.40
2023-03-02T19:42:45.422Z,31.87
2023-03-02T19:45:48.437Z,28.03
2023-03-02T19:48:51.406Z,27.23
2023-03-02T19:51:55.794Z,27.10
2023-03-02T19:54:58.637Z,30.43
2023-03-02T19:58:05.030Z,29.13
2023-03-02T20:01:10.647Z,38.37
2023-03-02T20:04:13.788Z,31.83
2023-03-02T20:07:16.997Z,33.50
2023-03-02T20:10:27.516Z,29.83
2023-03-02T20:13:33.072Z,29.07
2023-03-02T20:16:38.760Z,31.27
2023-03-02T20:19:41.738Z,30.90
2023-03-02T20:22:45.458Z,30.60
2023-03-02T20:25:48.620Z,30.00
2023-03-02T20:28:55.444Z,28.60
2023-03-02T20:31:58.911Z,30.93
2023-03-02T20:35:01.848Z,30.27
2023-03-02T20:38:08.156Z,28.27
2023-03-02T20:41:11.816Z,26.10
2023-03-02T20:44:16.321Z,26.00
2023-03-02T20:47:19.732Z,27.83
2023-03-02T20:50:26.299Z,26.03
2023-03-02T20:53:29.684Z,25.00
2023-03-02T20:56:32.592Z,27.50
2023-03-02T20:59:37.624Z,26.17
2023-03-02T21:02:40.464Z,26.73
2023-03-02T21:05:43.926Z,26.67
2023-03-02T21:08:47.441Z,28.63
2023-03-02T21:11:50.288Z,27.30
2023-03-02T21:14:55.075Z,25.93
2023-03-02T21:17:59.240Z,25.60
2023-03-02T21:21:02.635Z,25.73
2023-03-02T21:24:05.955Z,26.10
2023-03-02T21:27:08.964Z,25.87
2023-03-02T21:30:17.565Z,26.03
2023-03-02T21:33:20.455Z,26.20
2023-03-02T21:36:24.842Z,26.67
2023-03-02T21:39:27.676Z,27.50
2023-03-02T21:42:30.542Z,27.03
2023-03-02T21:45:35.916Z,26.50
2023-03-02T21:48:39.029Z,26.47
2023-03-02T21:51:41.936Z,29.23
2023-03-02T21:54:44.911Z,27.53
2023-03-02T21:57:48.365Z,28.43
2023-03-02T22:00:52.759Z,28.17
2023-03-02T22:03:56.039Z,25.47
2023-03-02T22:06:58.908Z,28.70
2023-03-02T22:10:01.873Z,29.77
2023-03-02T22:13:17.995Z,33.70
2023-03-02T22:16:24.220Z,30.40
2023-03-02T22:19:29.478Z,29.73
2023-03-02T22:22:32.334Z,27.30
2023-03-02T22:25:35.197Z,28.47
2023-03-02T22:28:41.024Z,27.20
2023-03-02T22:31:47.681Z,29.70
2023-03-02T22:34:53.269Z,27.57
2023-03-02T22:38:02.466Z,31.53
2023-03-02T22:41:07.374Z,27.23
2023-03-02T22:44:12.593Z,28.33
2023-03-02T22:47:19.890Z,28.90
2023-03-02T22:50:24.545Z,30.27
2023-03-02T22:53:30.018Z,29.37
2023-03-02T22:56:37.027Z,26.90
2023-03-02T22:59:39.963Z,26.43
2023-03-02T23:02:46.087Z,28.17
2023-03-02T23:05:51.567Z,28.77
2023-03-02T23:08:56.195Z,28.13
2023-03-02T23:12:02.395Z,25.83
2023-03-02T23:15:18.176Z,27.37
2023-03-02T23:18:25.333Z,26.37
2023-03-02T23:21:31.226Z,28.50
2023-03-02T23:24:34.442Z,28.67
2023-03-02T23:27:37.359Z,26.83
2023-03-02T23:30:40.479Z,30.17
2023-03-02T23:33:44.954Z,26.27
2023-03-02T23:36:47.815Z,26.97
2023-03-02T23:39:50.626Z,28.00
2023-03-02T23:42:53.432Z,28.87
2023-03-02T23:45:56.308Z,28.13
2023-03-02T23:49:00.585Z,29.43
2023-03-02T23:52:03.644Z,25.63
2023-03-02T23:55:07.482Z,28.17
2023-03-02T23:58:10.535Z,27.47
